Anglian Lady — VOLP — position and weather

sailwx.info

Track history (hours):
 
Tides and Currents Weather Stations Pressure Air Temp Water Temp Dewpoint Dewpoint Depression Visibility Wind Speed Wind Dir Waves Ship Positions

Anglian Lady

Last reported at 2017-Aug-17 05:25 UTC. Time now 2017-Aug-18 20:22 UTC.
Position N 46°30' W 084°20'.

Length 32 m.

Type: Tug. MMSI: 316002238.

Date/timePositionNaut miles runAvg speedWind from/ knotsBaromVisibWave heightAir tempDewpointWater temp
2017-Aug-17 05:25N 46°30' W 084°20'0 0.0
2017-Aug-17 04:48N 46°30' W 084°20'39 0.8
2017-Aug-15 03:33N 45°56' W 083°55'5 6.4
2017-Aug-15 02:43N 45°53' W 084°01'2 6.6
2017-Aug-15 02:29N 45°52' W 084°03'3 6.7
2017-Aug-15 02:00N 45°51' W 084°08'3 6.6
2017-Aug-15 01:30N 45°51' W 084°12'3 6.8
2017-Aug-15 01:00N 45°51' W 084°17'3 6.7
2017-Aug-15 00:31N 45°51' W 084°22'3 6.4
2017-Aug-15 00:00N 45°50' W 084°27'3 6.5
2017-Aug-14 23:29N 45°51' W 084°32'3 6.6
2017-Aug-14 23:00N 45°51' W 084°36'3 6.7
2017-Aug-14 22:30N 45°49' W 084°41'3 6.5
2017-Aug-14 22:00N 45°49' W 084°45'3 5.3
2017-Aug-14 21:31N 45°49' W 084°49'3 6.4
2017-Aug-14 21:00N 45°49' W 084°54'3 6.6
2017-Aug-14 20:30N 45°49' W 084°58'3 6.5
2017-Aug-14 20:01N 45°50' W 085°03'3 6.4
2017-Aug-14 19:30N 45°49' W 085°08'3 6.3
2017-Aug-14 19:01N 45°46' W 085°09'3 6.5
2017-Aug-14 18:31N 45°43' W 085°10'3 6.8
2017-Aug-14 18:00N 45°40' W 085°13'3 6.7
2017-Aug-14 17:30N 45°38' W 085°16'3 6.6
2017-Aug-14 17:00N 45°35' W 085°19'3 6.7
2017-Aug-14 16:31N 45°33' W 085°22'3 6.7
2017-Aug-14 16:00N 45°30' W 085°25'3 6.7
2017-Aug-14 15:30N 45°27' W 085°28'3 6.7
2017-Aug-14 15:01N 45°25' W 085°31'3 6.5
2017-Aug-14 14:30N 45°22' W 085°34'3 6.4
2017-Aug-14 14:00N 45°20' W 085°36'3 6.4
2017-Aug-14 13:30N 45°17' W 085°39'3 6.4
2017-Aug-14 13:00N 45°14' W 085°42'4 6.6
2017-Aug-14 12:26N 45°11' W 085°45'  
2017-Aug-10 23:14N 45°17' W 085°42'2 7.8
2017-Aug-10 22:59N 45°18' W 085°41'4 7.8
2017-Aug-10 22:28N 45°22' W 085°37'4 7.6
2017-Aug-10 22:00N 45°25' W 085°34'4 7.3
2017-Aug-10 21:30N 45°27' W 085°31'4 7.3
2017-Aug-10 21:00N 45°30' W 085°27'4 7.7
2017-Aug-10 20:31N 45°33' W 085°24'4 7.7
2017-Aug-10 20:00N 45°36' W 085°21'4 7.6
2017-Aug-10 19:30N 45°39' W 085°17'4 7.5
2017-Aug-10 19:00N 45°42' W 085°14'4 7.6
2017-Aug-10 18:30N 45°45' W 085°10'4 7.0
2017-Aug-10 18:00N 45°48' W 085°08'3 6.6
2017-Aug-10 17:30N 45°50' W 085°04'4 7.4
2017-Aug-10 17:00N 45°50' W 084°59'4 7.6
2017-Aug-10 16:31N 45°50' W 084°54'4 7.5
2017-Aug-10 16:00N 45°49' W 084°48'3 6.8
2017-Aug-10 15:30N 45°49' W 084°43'3 6.6
2017-Aug-10 15:01N 45°50' W 084°39'3 6.7
2017-Aug-10 14:30N 45°51' W 084°34'4 7.1
2017-Aug-10 13:57N 45°52' W 084°29'3 7.1
2017-Aug-10 13:31N 45°52' W 084°24'3 6.9
2017-Aug-10 13:00N 45°53' W 084°20'3 6.9
2017-Aug-10 12:31N 45°53' W 084°15'3 6.8
2017-Aug-10 12:01N 45°54' W 084°10'3 6.7
2017-Aug-10 11:30N 45°54' W 084°05'9 5.7
2017-Aug-10 09:59N 45°57' W 083°53'9 6.5
2017-Aug-10 08:40N 46°04' W 084°01'3 7.3
2017-Aug-10 08:11N 46°08' W 084°01'3 7.1
2017-Aug-10 07:47N 46°10' W 084°04'2 6.5
2017-Aug-10 07:30N 46°11' W 084°06'3 5.2
2017-Aug-10 06:59N 46°13' W 084°09'  
Track history (hours):
 
Tides and Currents Weather Stations Pressure Air Temp Water Temp Dewpoint Dewpoint Depression Visibility Wind Speed Wind Dir Waves Ship Positions

Anglian Lady

Last reported at 2017-Aug-17 05:25 UTC. Time now 2017-Aug-18 20:22 UTC.
Position N 46°30' W 084°20'.

Length 32 m.

Type: Tug. MMSI: 316002238.

Date/timePositionNaut miles runAvg speedWind from/ knotsBaromVisibWave heightAir tempDewpointWater temp
2017-Aug-17 05:25N 46°30' W 084°20'0 0.0
2017-Aug-17 04:48N 46°30' W 084°20'39 0.8
2017-Aug-15 03:33N 45°56' W 083°55'5 6.4
2017-Aug-15 02:43N 45°53' W 084°01'2 6.6
2017-Aug-15 02:29N 45°52' W 084°03'3 6.7
2017-Aug-15 02:00N 45°51' W 084°08'3 6.6
2017-Aug-15 01:30N 45°51' W 084°12'3 6.8
2017-Aug-15 01:00N 45°51' W 084°17'3 6.7
2017-Aug-15 00:31N 45°51' W 084°22'3 6.4
2017-Aug-15 00:00N 45°50' W 084°27'3 6.5
2017-Aug-14 23:29N 45°51' W 084°32'3 6.6
2017-Aug-14 23:00N 45°51' W 084°36'3 6.7
2017-Aug-14 22:30N 45°49' W 084°41'3 6.5
2017-Aug-14 22:00N 45°49' W 084°45'3 5.3
2017-Aug-14 21:31N 45°49' W 084°49'3 6.4
2017-Aug-14 21:00N 45°49' W 084°54'3 6.6
2017-Aug-14 20:30N 45°49' W 084°58'3 6.5
2017-Aug-14 20:01N 45°50' W 085°03'3 6.4
2017-Aug-14 19:30N 45°49' W 085°08'3 6.3
2017-Aug-14 19:01N 45°46' W 085°09'3 6.5
2017-Aug-14 18:31N 45°43' W 085°10'3 6.8
2017-Aug-14 18:00N 45°40' W 085°13'3 6.7
2017-Aug-14 17:30N 45°38' W 085°16'3 6.6
2017-Aug-14 17:00N 45°35' W 085°19'3 6.7
2017-Aug-14 16:31N 45°33' W 085°22'3 6.7
2017-Aug-14 16:00N 45°30' W 085°25'3 6.7
2017-Aug-14 15:30N 45°27' W 085°28'3 6.7
2017-Aug-14 15:01N 45°25' W 085°31'3 6.5
2017-Aug-14 14:30N 45°22' W 085°34'3 6.4
2017-Aug-14 14:00N 45°20' W 085°36'3 6.4
2017-Aug-14 13:30N 45°17' W 085°39'3 6.4
2017-Aug-14 13:00N 45°14' W 085°42'4 6.6
2017-Aug-14 12:26N 45°11' W 085°45'  
2017-Aug-10 23:14N 45°17' W 085°42'2 7.8
2017-Aug-10 22:59N 45°18' W 085°41'4 7.8
2017-Aug-10 22:28N 45°22' W 085°37'4 7.6
2017-Aug-10 22:00N 45°25' W 085°34'4 7.3
2017-Aug-10 21:30N 45°27' W 085°31'4 7.3
2017-Aug-10 21:00N 45°30' W 085°27'4 7.7
2017-Aug-10 20:31N 45°33' W 085°24'4 7.7
2017-Aug-10 20:00N 45°36' W 085°21'4 7.6
2017-Aug-10 19:30N 45°39' W 085°17'4 7.5
2017-Aug-10 19:00N 45°42' W 085°14'4 7.6
2017-Aug-10 18:30N 45°45' W 085°10'4 7.0
2017-Aug-10 18:00N 45°48' W 085°08'3 6.6
2017-Aug-10 17:30N 45°50' W 085°04'4 7.4
2017-Aug-10 17:00N 45°50' W 084°59'4 7.6
2017-Aug-10 16:31N 45°50' W 084°54'4 7.5
2017-Aug-10 16:00N 45°49' W 084°48'3 6.8
2017-Aug-10 15:30N 45°49' W 084°43'3 6.6
2017-Aug-10 15:01N 45°50' W 084°39'3 6.7
2017-Aug-10 14:30N 45°51' W 084°34'4 7.1
2017-Aug-10 13:57N 45°52' W 084°29'3 7.1
2017-Aug-10 13:31N 45°52' W 084°24'3 6.9
2017-Aug-10 13:00N 45°53' W 084°20'3 6.9
2017-Aug-10 12:31N 45°53' W 084°15'3 6.8
2017-Aug-10 12:01N 45°54' W 084°10'3 6.7
2017-Aug-10 11:30N 45°54' W 084°05'9 5.7
2017-Aug-10 09:59N 45°57' W 083°53'9 6.5
2017-Aug-10 08:40N 46°04' W 084°01'3 7.3
2017-Aug-10 08:11N 46°08' W 084°01'3 7.1
2017-Aug-10 07:47N 46°10' W 084°04'2 6.5
2017-Aug-10 07:30N 46°11' W 084°06'3 5.2
2017-Aug-10 06:59N 46°13' W 084°09'  

Dump ship's entire track history